Latest Weather Observations for Forbes

IDN60801

Issued at 5:02 pm EST Friday 31 July 2015 (issued every 30 minutes, with the page automatically refreshed every 10 minutes)

About weather observations | Map of weather stations | Latest weather observations for NSW | Other Formats
Station Details ID: 065103 Name: FORBES AIRPORT AWS Lat: -33.36 Lon: 147.92 Height: 230.4 m
Data from the previous 72 hours. | See also: Recent months at Forbes
Date/Time
EST
Temp
°C
App
Temp
°C
Dew
Point
Rel
Hum
%
Delta-T
°C
Wind Press
QNH
hPa
Press
MSL
hPa
Rain
since 9 am
mm
Dir
 
Spd
km/h
Gust
km/h
Spd
kts
Gust
kts
31/05:00pm 13.5 11.6 7.7 68 2.9 WNW 7 9 4 5 1020.2 1020.6 0.2
31/04:30pm 15.8 13.6 7.8 59 4.0 NW 9 13 5 7 1020.0 1020.4 0.2
31/04:00pm 15.9 13.9 6.9 55 4.5 NW 7 11 4 6 1020.2 1020.6 0.2
31/03:30pm 16.5 14.4 8.2 58 4.3 NW 9 13 5 7 1020.3 1020.7 0.2
31/03:00pm 16.2 14.3 6.9 54 4.6 NNE 6 11 3 6 1020.4 1020.8 0.2
31/02:30pm 15.8 13.0 7.0 56 4.4 N 11 17 6 9 1020.6 1021.0 0.2
31/02:00pm 15.9 13.9 6.3 53 4.7 NNW 6 13 3 7 1020.8 1021.2 0.2
31/01:30pm 15.4 12.9 6.7 56 4.3 NNE 9 17 5 9 1020.9 1021.3 0.2
31/01:00pm 15.2 13.6 6.2 55 4.4 NNW 4 13 2 7 1021.5 1021.9 0.2
31/12:30pm 14.9 13.3 6.2 56 4.2 NNE 4 11 2 6 1021.9 1022.3 0.2
31/12:00pm 14.3 12.9 5.7 56 4.1 W 2 11 1 6 1022.1 1022.5 0.2
31/11:30am 13.5 12.6 5.9 60 3.6 CALM 0 6 0 3 1022.3 1022.8 0.0
31/11:00am 13.4 12.2 4.8 56 4.0 CALM 0 0 0 0 1022.6 1023.0 0.0
31/10:30am 13.0 10.9 5.9 62 3.4 WNW 6 9 3 5 1022.8 1023.2 0.0
31/10:00am 11.8 8.9 4.5 61 3.3 WNW 9 13 5 7 1022.5 1022.9 0.0
31/09:30am 11.2 8.0 5.3 67 2.7 NW 11 15 6 8 1022.3 1022.8 0.0
31/09:00am 10.0 7.6 7.1 82 1.4 NNW 9 13 5 7 1022.0 1022.4 0.2
31/08:30am 8.2 5.3 6.5 89 0.8 NNE 11 13 6 7 1021.6 1022.0 0.2
31/07:30am 4.6 3.4 4.5 99 0.0 CALM 0 0 0 0 1021.3 1021.7 0.2
31/07:00am 3.7 0.6 3.4 98 0.1 NNW 9 11 5 6 1020.7 1021.1 0.2
31/06:30am 3.6 0.0 3.0 96 0.2 N 11 13 6 7 1020.5 1020.9 0.2
31/06:00am 4.3 0.1 3.9 97 0.2 NNE 15 15 8 8 1020.2 1020.7 0.2
31/05:30am 5.3 2.1 4.9 97 0.2 NNE 11 13 6 7 1020.2 1020.6 0.2
31/05:00am 5.1 2.2 4.5 96 0.3 NNE 9 11 5 6 1019.8 1020.2 0.2
31/04:30am 5.9 2.4 5.3 96 0.3 N 13 15 7 8 1019.8 1020.2 0.2
31/04:00am 6.9 2.9 6.5 97 0.2 N 17 19 9 10 1019.8 1020.2 0.2
31/03:30am 6.9 3.6 6.6 98 0.1 NNE 13 17 7 9 1020.3 1020.7 0.2
31/03:00am 6.5 2.8 6.2 98 0.1 NNE 15 17 8 9 1020.7 1021.1 0.2
31/02:30am 7.0 3.4 6.6 97 0.2 NNE 15 17 8 9 1020.8 1021.2 0.2
31/02:00am 7.5 4.4 7.1 97 0.2 NNE 13 17 7 9 1021.2 1021.6 0.2
31/01:30am 7.4 4.6 7.0 97 0.2 NNE 11 13 6 7 1021.4 1021.8 0.0
31/01:00am 7.6 5.2 7.0 96 0.3 NNE 9 11 5 6 1021.6 1022.0 0.0
31/12:30am 7.5 4.7 6.8 95 0.3 NNE 11 13 6 7 1021.5 1021.9 0.0
31/12:00am 7.1 4.5 6.0 93 0.5 NNE 9 11 5 6 1021.5 1021.9 0.0
 
Date/Time
EST
Temp
°C
App
Temp
°C
Dew
Point
Rel
Hum
%
Delta-T
°C
Wind Press
QNH
hPa
Press
MSL
hPa
Rain
since 9 am
mm
Dir
 
Spd
km/h
Gust
km/h
Spd
kts
Gust
kts
30/11:30pm 7.4 5.2 6.2 92 0.6 NNE 7 9 4 5 1021.6 1022.0 0.0
30/11:00pm 7.5 5.0 6.4 93 0.5 NNE 9 11 5 6 1021.7 1022.1 0.0
30/10:30pm 7.3 6.0 6.1 92 0.5 N 2 6 1 3 1021.7 1022.1 0.0
30/10:00pm 7.5 4.8 5.6 88 0.9 NNE 9 13 5 7 1021.5 1021.9 0.0
30/09:30pm 8.2 5.2 6.0 86 1.0 N 11 13 6 7 1021.6 1022.0 0.0
30/09:00pm 8.2 4.1 6.0 86 1.0 NNE 17 20 9 11 1021.1 1021.5 0.0
30/08:30pm 7.8 4.1 6.3 90 0.7 N 15 17 8 9 1021.4 1021.8 0.0
30/08:00pm 6.8 3.2 5.1 89 0.8 NNE 13 15 7 8 1021.4 1021.8 0.0
30/07:30pm 8.2 6.0 6.0 86 1.0 N 7 13 4 7 1021.8 1022.2 0.0
30/07:00pm 8.0 6.6 5.6 85 1.1 NNE 2 11 1 6 1021.7 1022.1 0.0
30/06:30pm 8.9 7.8 5.3 78 1.6 CALM 0 0 0 0 1021.8 1022.2 0.0
30/06:00pm 8.6 6.4 5.4 80 1.5 N 6 7 3 4 1021.9 1022.3 0.0
30/05:30pm 10.0 7.2 5.2 72 2.2 NNW 9 9 5 5 1022.0 1022.4 0.0
30/05:00pm 11.3 7.8 5.6 68 2.7 N 13 15 7 8 1021.8 1022.2 0.0
30/04:30pm 12.6 8.3 5.3 61 3.4 NNW 17 22 9 12 1021.7 1022.1 0.0
30/04:00pm 13.3 7.7 5.2 58 3.8 N 24 32 13 17 1021.7 1022.1 0.0
30/03:30pm 13.8 8.6 5.7 58 3.9 N 22 30 12 16 1021.8 1022.2 0.0
30/03:00pm 13.9 9.0 5.3 56 4.1 N 20 28 11 15 1022.2 1022.7 0.0
30/02:30pm 14.0 9.2 4.9 54 4.3 NNW 19 28 10 15 1023.4 1023.8 0.0
30/02:00pm 14.0 9.0 4.6 53 4.4 NW 20 28 11 15 1023.5 1023.9 0.0
30/01:30pm 14.2 9.2 6.3 59 3.8 NW 22 30 12 16 1024.3 1024.7 0.0
30/01:00pm 13.7 8.0 4.8 55 4.2 NNW 24 33 13 18 1024.6 1025.0 0.0
30/12:30pm 13.3 7.7 5.5 59 3.7 NW 24 30 13 16 1024.8 1025.2 0.0
30/12:00pm 12.9 7.7 5.6 61 3.4 NNW 22 30 12 16 1025.6 1026.0 0.0
30/11:30am 12.1 5.9 4.3 59 3.6 N 26 33 14 18 1025.8 1026.2 0.0
30/11:00am 12.6 7.0 5.5 62 3.3 NNW 24 30 13 16 1026.2 1026.7 0.0
30/10:30am 11.5 5.9 5.4 66 2.8 N 24 30 13 16 1026.5 1027.0 0.0
30/10:00am 10.5 5.6 5.3 70 2.4 N 20 26 11 14 1026.8 1027.3 0.0
30/09:30am 9.4 4.8 5.8 78 1.7 N 19 22 10 12 1027.0 1027.4 0.0
30/09:00am 7.4 6.3 5.2 86 1.0 CALM 0 0 0 0 1027.2 1027.6 0.0
30/08:30am 5.5 3.0 4.6 94 0.4 N 7 9 4 5 1027.2 1027.6 0.0
30/08:00am 3.9 2.5 3.6 98 0.1 CALM 0 0 0 0 1027.3 1027.7 0.0
30/07:30am 2.0 -1.8 1.7 98 0.1 NNE 11 13 6 7 1027.0 1027.4 0.0
30/07:00am 1.8 -1.7 1.5 98 0.1 NNE 9 11 5 6 1027.0 1027.4 0.0
30/06:30am 2.2 -0.6 1.9 98 0.1 NNE 6 7 3 4 1026.8 1027.3 0.0
30/06:00am 2.3 -1.1 1.9 97 0.2 NNE 9 9 5 5 1026.5 1027.0 0.0
30/05:30am 3.1 1.2 3.0 99 0.0 NNE 2 11 1 6 1026.3 1026.8 0.0
30/05:00am 2.8 1.2 2.7 99 0.0 CALM 0 0 0 0 1026.4 1026.9 0.0
30/04:30am 2.8 -0.5 2.5 98 0.1 NE 9 11 5 6 1026.5 1027.0 0.0
30/04:00am 2.6 1.0 2.3 98 0.1 CALM 0 0 0 0 1026.8 1027.3 0.0
30/03:30am 3.2 0.4 2.9 98 0.1 ENE 7 9 4 5 1027.0 1027.4 0.0
30/03:00am 3.3 1.5 3.2 99 0.0 ENE 2 6 1 3 1027.4 1027.8 0.0
30/02:30am 2.5 -0.8 2.2 98 0.1 ENE 9 11 5 6 1027.6 1028.0 0.0
30/02:00am 3.3 1.8 3.0 98 0.1 CALM 0 0 0 0 1028.3 1028.7 0.0
30/01:30am 3.7 2.3 3.4 98 0.1 CALM 0 0 0 0 1028.2 1028.6 0.0
30/01:00am 3.9 2.5 3.6 98 0.1 CALM 0 0 0 0 1028.0 1028.4 0.0
30/12:30am 4.1 2.8 4.0 99 0.0 CALM 0 0 0 0 1028.6 1029.0 0.0
30/12:00am 3.9 2.5 3.5 97 0.2 CALM 0 0 0 0 1028.4 1028.8 0.0
 
Date/Time
EST
Temp
°C
App
Temp
°C
Dew
Point
Rel
Hum
%
Delta-T
°C
Wind Press
QNH
hPa
Press
MSL
hPa
Rain
since 9 am
mm
Dir
 
Spd
km/h
Gust
km/h
Spd
kts
Gust
kts
29/11:30pm 4.5 3.2 4.2 98 0.1 CALM 0 0 0 0 1028.7 1029.1 0.0
29/11:00pm 4.5 1.9 4.2 98 0.1 NE 7 11 4 6 1029.1 1029.5 0.0
29/10:30pm 4.6 3.3 4.0 96 0.3 CALM 0 0 0 0 1029.4 1029.8 0.0
29/10:00pm 5.4 4.2 4.8 96 0.3 CALM 0 0 0 0 1029.7 1030.2 0.0
29/09:30pm 5.8 4.7 4.9 94 0.4 CALM 0 0 0 0 1029.8 1030.3 0.0
29/09:00pm 6.6 5.6 5.6 93 0.4 CALM 0 0 0 0 1029.7 1030.2 0.0
29/08:30pm 6.9 5.9 5.8 93 0.5 CALM 0 0 0 0 1029.6 1030.1 0.0
29/08:00pm 7.6 6.7 5.9 89 0.8 CALM 0 0 0 0 1029.5 1030.0 0.0
29/07:30pm 7.1 6.2 5.9 92 0.5 CALM 0 0 0 0 1029.6 1030.1 0.0
29/07:00pm 7.5 6.5 5.8 89 0.8 CALM 0 0 0 0 1029.7 1030.2 0.0
29/06:30pm 8.2 7.2 5.7 84 1.1 CALM 0 0 0 0 1029.5 1030.0 0.0
29/06:00pm 8.4 6.2 6.0 85 1.1 SSW 7 7 4 4 1029.3 1029.7 0.0
29/05:30pm 9.5 7.5 6.4 81 1.5 S 6 7 3 4 1029.3 1029.7 0.0
29/05:00pm 11.5 10.2 6.0 69 2.6 WSW 2 9 1 5 1029.4 1029.8 0.0
29/04:30pm 13.3 11.0 5.9 61 3.5 S 7 11 4 6 1029.1 1029.5 0.0
29/04:00pm 15.2 14.1 5.1 51 4.8 CALM 0 0 0 0 1029.2 1029.6 0.0
29/03:30pm 14.5 11.1 5.8 56 4.2 W 13 17 7 9 1030.0 1030.5 0.0
29/03:00pm 15.0 12.2 5.2 52 4.6 NW 9 13 5 7 1029.9 1030.4 0.0
29/02:30pm 14.7 13.2 5.2 53 4.5 NW 2 7 1 4 1029.8 1030.3 0.0
29/02:00pm 14.2 11.7 5.0 54 4.3 N 7 13 4 7 1029.9 1030.4 0.0
29/01:30pm 14.2 11.9 4.8 53 4.4 NNW 6 13 3 7 1030.5 1031.0 0.0
29/01:00pm 14.1 13.1 5.7 57 4.0 CALM 0 0 0 0 1031.6 1032.0 0.0
29/12:30pm 13.7 12.4 6.1 60 3.7 WNW 2 9 1 5 1032.1 1032.5 0.0
29/12:00pm 12.4 11.0 5.6 63 3.2 WNW 2 7 1 4 1032.9 1033.3 0.0
29/11:30am 11.4 9.7 5.7 68 2.7 E 4 9 2 5 1033.3 1033.8 0.0
29/11:00am 10.4 8.7 6.0 74 2.0 SSE 4 9 2 5 1033.7 1034.2 0.0
29/10:30am 9.7 7.5 6.2 79 1.6 SE 7 11 4 6 1033.9 1034.4 0.0
29/10:00am 8.6 6.6 6.2 85 1.1 SE 6 11 3 6 1034.3 1034.8 0.0
29/09:30am 7.3 4.7 6.1 92 0.5 E 9 13 5 7 1034.3 1034.8 0.0
29/09:00am 5.8 3.1 5.7 99 0.0 ESE 9 15 5 8 1034.3 1034.8 0.0
29/08:30am 3.8 0.7 3.7 99 0.0 ESE 9 13 5 7 1034.2 1034.7 0.0
29/08:00am 0.8 -1.5 0.7 99 0.0 S 2 6 1 3 1034.4 1034.9 0.0
29/07:30am -0.6 -4.0 -0.7 99 0.0 S 7 7 4 4 1034.3 1034.8 0.0
29/07:00am -1.2 -3.4 -1.3 99 0.0 CALM 0 0 0 0 1033.9 1034.4 0.0
29/06:30am -1.1 -3.3 -1.2 99 0.0 CALM 0 0 0 0 1033.7 1034.2 0.0
29/06:00am -0.6 -2.7 -0.7 99 0.0 CALM 0 0 0 0 1033.3 1033.8 0.0
29/05:30am -0.8 -2.9 -0.9 99 0.0 CALM 0 0 0 0 1033.1 1033.5 0.0
29/05:00am -0.5 -2.6 -0.6 99 0.0 CALM 0 0 0 0 1033.0 1033.4 0.0
29/04:30am -0.1 -2.1 -0.2 99 0.0 CALM 0 0 0 0 1033.1 1033.5 0.0
29/04:00am -0.3 -2.3 -0.4 99 0.0 CALM 0 0 0 0 1033.1 1033.5 0.0
29/03:30am -0.1 -2.1 -0.2 99 0.0 CALM 0 0 0 0 1033.2 1033.7 0.0
29/03:00am -0.1 -2.1 -0.2 99 0.0 CALM 0 0 0 0 1033.2 1033.7 0.0
29/02:30am 0.3 -1.7 0.2 99 0.0 CALM 0 0 0 0 1033.6 1034.1 0.0
29/02:00am 0.5 -1.4 0.4 99 0.0 CALM 0 0 0 0 1033.6 1034.1 0.0
29/01:30am 1.0 -0.8 0.9 99 0.0 CALM 0 0 0 0 1033.5 1034.0 0.0
29/01:00am 1.9 0.2 1.8 99 0.0 CALM 0 0 0 0 1033.5 1034.0 0.0
29/12:30am 2.1 0.4 2.0 99 0.0 CALM 0 0 0 0 1033.6 1034.1 0.0
29/12:00am 1.7 -0.1 1.4 98 0.1 CALM 0 0 0 0 1034.0 1034.5 0.0
 
Date/Time
EST
Temp
°C
App
Temp
°C
Dew
Point
Rel
Hum
%
Delta-T
°C
Wind Press
QNH
hPa
Press
MSL
hPa
Rain
since 9 am
mm
Dir
 
Spd
km/h
Gust
km/h
Spd
kts
Gust
kts
28/11:30pm 3.1 0.4 2.7 97 0.2 S 6 7 3 4 1033.9 1034.4 0.0
28/11:00pm 3.2 0.3 2.6 96 0.2 S 7 9 4 5 1034.0 1034.5 0.0
28/10:30pm 3.8 0.3 3.5 98 0.1 SSW 11 13 6 7 1034.1 1034.6 0.0
28/10:00pm 3.7 0.2 3.3 97 0.2 SSW 11 11 6 6 1034.1 1034.6 0.0
28/09:30pm 3.9 0.8 3.6 98 0.1 S 9 11 5 6 1034.2 1034.7 0.0
28/09:00pm 4.2 2.9 3.9 98 0.1 CALM 0 0 0 0 1034.2 1034.7 0.0
28/08:30pm 4.4 3.0 3.7 95 0.3 CALM 0 0 0 0 1034.2 1034.7 0.0
28/08:00pm 4.9 3.6 4.0 94 0.4 CALM 0 0 0 0 1034.2 1034.7 0.0
28/07:30pm 5.8 4.6 4.8 93 0.4 CALM 0 0 0 0 1033.9 1034.4 0.0
28/07:00pm 6.7 5.6 5.0 89 0.7 CALM 0 0 0 0 1033.9 1034.4 0.0
28/06:30pm 7.9 6.9 5.7 86 1.0 CALM 0 0 0 0 1033.4 1033.9 0.0
28/06:00pm 7.9 6.9 5.7 86 1.0 CALM 0 0 0 0 1033.4 1033.9 0.0
28/05:30pm 8.6 6.5 5.7 82 1.3 SSW 6 7 3 4 1033.1 1033.5 0.0

Other Formats:

Comma delimited format used in spreadsheet applications
http://www.bom.gov.au/fwo/IDN60801/IDN60801.94715.axf

JavaScript Object Notation format (JSON) in row-major order
http://www.bom.gov.au/fwo/IDN60801/IDN60801.94715.json